Aviation Digital Data Service (ADDS)

Output produced by METARs form (1215 UTC 17 September 2019)
found at http://www.aviationweather.gov/metar/data/
 
METAR text: GCTS 171200Z 09017KT 9999 FEW018 28/19 Q1017 NOSIG
Conditions at: GCTS (TENERIFE SUR/REI, ES) observed 1200 UTC 17 September 2019
Temperature: 28.0°C (82°F)
Dewpoint: 19.0°C (66°F) [RH = 58%]
Pressure (altimeter): 30.03 inches Hg (1017.0 mb)
Winds: from the E (90 degrees) at 20 MPH (17 knots; 8.7 m/s)
Visibility: 6 or more miles (10+ km)
Ceiling: at least 12,000 feet AGL
Clouds: few clouds at 1800 feet AGL
Weather: no significant weather observed at this time

METAR text: GCTS 171130Z 08016KT 050V110 9999 FEW018 27/20 Q1017 NOSIG
Conditions at: GCTS (TENERIFE SUR/REI, ES) observed 1130 UTC 17 September 2019
Temperature: 27.0°C (81°F)
Dewpoint: 20.0°C (68°F) [RH = 66%]
Pressure (altimeter): 30.03 inches Hg (1017.0 mb)
Winds: from the E (80 degrees) at 18 MPH (16 knots; 8.2 m/s)
Visibility: 6 or more miles (10+ km)
Ceiling: at least 12,000 feet AGL
Clouds: few clouds at 1800 feet AGL
Weather: no significant weather observed at this time

METAR text: GCTS 171100Z 07014KT 9999 FEW018 26/20 Q1017 NOSIG
Conditions at: GCTS (TENERIFE SUR/REI, ES) observed 1100 UTC 17 September 2019
Temperature: 26.0°C (79°F)
Dewpoint: 20.0°C (68°F) [RH = 70%]
Pressure (altimeter): 30.03 inches Hg (1017.0 mb)
Winds: from the ENE (70 degrees) at 16 MPH (14 knots; 7.2 m/s)
Visibility: 6 or more miles (10+ km)
Ceiling: at least 12,000 feet AGL
Clouds: few clouds at 1800 feet AGL
Weather: no significant weather observed at this time

METAR text: GCTS 171030Z 08016KT 9999 FEW018 26/19 Q1017 NOSIG
Conditions at: GCTS (TENERIFE SUR/REI, ES) observed 1030 UTC 17 September 2019
Temperature: 26.0°C (79°F)
Dewpoint: 19.0°C (66°F) [RH = 65%]
Pressure (altimeter): 30.03 inches Hg (1017.0 mb)
Winds: from the E (80 degrees) at 18 MPH (16 knots; 8.2 m/s)
Visibility: 6 or more miles (10+ km)
Ceiling: at least 12,000 feet AGL
Clouds: few clouds at 1800 feet AGL
Weather: no significant weather observed at this time

METAR text: GCTS 171000Z 07016KT 040V100 9999 FEW018 25/19 Q1017 NOSIG
Conditions at: GCTS (TENERIFE SUR/REI, ES) observed 1000 UTC 17 September 2019
Temperature: 25.0°C (77°F)
Dewpoint: 19.0°C (66°F) [RH = 69%]
Pressure (altimeter): 30.03 inches Hg (1017.0 mb)
Winds: from the ENE (70 degrees) at 18 MPH (16 knots; 8.2 m/s)
Visibility: 6 or more miles (10+ km)
Ceiling: at least 12,000 feet AGL
Clouds: few clouds at 1800 feet AGL
Weather: no significant weather observed at this time

METAR text: GCTS 170930Z 07014KT 9999 FEW018 25/19 Q1017 NOSIG
Conditions at: GCTS (TENERIFE SUR/REI, ES) observed 0930 UTC 17 September 2019
Temperature: 25.0°C (77°F)
Dewpoint: 19.0°C (66°F) [RH = 69%]
Pressure (altimeter): 30.03 inches Hg (1017.0 mb)
Winds: from the ENE (70 degrees) at 16 MPH (14 knots; 7.2 m/s)
Visibility: 6 or more miles (10+ km)
Ceiling: at least 12,000 feet AGL
Clouds: few clouds at 1800 feet AGL
Weather: no significant weather observed at this time

METAR text: GCTS 170900Z 07014KT 9999 FEW015 24/19 Q1017 NOSIG
Conditions at: GCTS (TENERIFE SUR/REI, ES) observed 0900 UTC 17 September 2019
Temperature: 24.0°C (75°F)
Dewpoint: 19.0°C (66°F) [RH = 74%]
Pressure (altimeter): 30.03 inches Hg (1017.0 mb)
Winds: from the ENE (70 degrees) at 16 MPH (14 knots; 7.2 m/s)
Visibility: 6 or more miles (10+ km)
Ceiling: at least 12,000 feet AGL
Clouds: few clouds at 1500 feet AGL
Weather: no significant weather observed at this time

METAR text: GCTS 170830Z 07010KT 9999 FEW015 23/20 Q1016 NOSIG
Conditions at: GCTS (TENERIFE SUR/REI, ES) observed 0830 UTC 17 September 2019
Temperature: 23.0°C (73°F)
Dewpoint: 20.0°C (68°F) [RH = 83%]
Pressure (altimeter): 30.00 inches Hg (1016.0 mb)
Winds: from the ENE (70 degrees) at 12 MPH (10 knots; 5.1 m/s)
Visibility: 6 or more miles (10+ km)
Ceiling: at least 12,000 feet AGL
Clouds: few clouds at 1500 feet AGL
Weather: no significant weather observed at this time

METAR text: GCTS 170800Z 06010KT 9999 FEW015 23/19 Q1016 NOSIG
Conditions at: GCTS (TENERIFE SUR/REI, ES) observed 0800 UTC 17 September 2019
Temperature: 23.0°C (73°F)
Dewpoint: 19.0°C (66°F) [RH = 78%]
Pressure (altimeter): 30.00 inches Hg (1016.0 mb)
Winds: from the ENE (60 degrees) at 12 MPH (10 knots; 5.1 m/s)
Visibility: 6 or more miles (10+ km)
Ceiling: at least 12,000 feet AGL
Clouds: few clouds at 1500 feet AGL
Weather: no significant weather observed at this time

METAR text: GCTS 170730Z 06010KT 9999 FEW015 22/20 Q1016 NOSIG
Conditions at: GCTS (TENERIFE SUR/REI, ES) observed 0730 UTC 17 September 2019
Temperature: 22.0°C (72°F)
Dewpoint: 20.0°C (68°F) [RH = 88%]
Pressure (altimeter): 30.00 inches Hg (1016.0 mb)
Winds: from the ENE (60 degrees) at 12 MPH (10 knots; 5.1 m/s)
Visibility: 6 or more miles (10+ km)
Ceiling: at least 12,000 feet AGL
Clouds: few clouds at 1500 feet AGL
Weather: no significant weather observed at this time

METAR text: GCTS 170700Z 07011KT 9999 FEW030 22/19 Q1016 NOSIG
Conditions at: GCTS (TENERIFE SUR/REI, ES) observed 0700 UTC 17 September 2019
Temperature: 22.0°C (72°F)
Dewpoint: 19.0°C (66°F) [RH = 83%]
Pressure (altimeter): 30.00 inches Hg (1016.0 mb)
Winds: from the ENE (70 degrees) at 13 MPH (11 knots; 5.7 m/s)
Visibility: 6 or more miles (10+ km)
Ceiling: at least 12,000 feet AGL
Clouds: few clouds at 3000 feet AGL
Weather: no significant weather observed at this time

METAR text: GCTS 170630Z 07011KT 9999 SCT020 22/20 Q1016 NOSIG
Conditions at: GCTS (TENERIFE SUR/REI, ES) observed 0630 UTC 17 September 2019
Temperature: 22.0°C (72°F)
Dewpoint: 20.0°C (68°F) [RH = 88%]
Pressure (altimeter): 30.00 inches Hg (1016.0 mb)
Winds: from the ENE (70 degrees) at 13 MPH (11 knots; 5.7 m/s)
Visibility: 6 or more miles (10+ km)
Ceiling: at least 12,000 feet AGL
Clouds: scattered clouds at 2000 feet AGL
Weather: no significant weather observed at this time

METAR text: GCTS 170600Z 07011KT 9999 SCT020 22/20 Q1015 NOSIG
Conditions at: GCTS (TENERIFE SUR/REI, ES) observed 0600 UTC 17 September 2019
Temperature: 22.0°C (72°F)
Dewpoint: 20.0°C (68°F) [RH = 88%]
Pressure (altimeter): 29.97 inches Hg (1015.0 mb)
Winds: from the ENE (70 degrees) at 13 MPH (11 knots; 5.7 m/s)
Visibility: 6 or more miles (10+ km)
Ceiling: at least 12,000 feet AGL
Clouds: scattered clouds at 2000 feet AGL
Weather: no significant weather observed at this time

METAR text: GCTS 170530Z 07009KT 9999 SCT020 22/20 Q1016 NOSIG
Conditions at: GCTS (TENERIFE SUR/REI, ES) observed 0530 UTC 17 September 2019
Temperature: 22.0°C (72°F)
Dewpoint: 20.0°C (68°F) [RH = 88%]
Pressure (altimeter): 30.00 inches Hg (1016.0 mb)
Winds: from the ENE (70 degrees) at 10 MPH (9 knots; 4.6 m/s)
Visibility: 6 or more miles (10+ km)
Ceiling: at least 12,000 feet AGL
Clouds: scattered clouds at 2000 feet AGL
Weather: no significant weather observed at this time

METAR text: GCTS 170500Z 07007KT 9999 SCT020 22/20 Q1015 NOSIG
Conditions at: GCTS (TENERIFE SUR/REI, ES) observed 0500 UTC 17 September 2019
Temperature: 22.0°C (72°F)
Dewpoint: 20.0°C (68°F) [RH = 88%]
Pressure (altimeter): 29.97 inches Hg (1015.0 mb)
Winds: from the ENE (70 degrees) at 8 MPH (7 knots; 3.6 m/s)
Visibility: 6 or more miles (10+ km)
Ceiling: at least 12,000 feet AGL
Clouds: scattered clouds at 2000 feet AGL
Weather: no significant weather observed at this time

METAR text: GCTS 170430Z 07009KT 9999 SCT020 22/20 Q1015 NOSIG
Conditions at: GCTS (TENERIFE SUR/REI, ES) observed 0430 UTC 17 September 2019
Temperature: 22.0°C (72°F)
Dewpoint: 20.0°C (68°F) [RH = 88%]
Pressure (altimeter): 29.97 inches Hg (1015.0 mb)
Winds: from the ENE (70 degrees) at 10 MPH (9 knots; 4.6 m/s)
Visibility: 6 or more miles (10+ km)
Ceiling: at least 12,000 feet AGL
Clouds: scattered clouds at 2000 feet AGL
Weather: no significant weather observed at this time

METAR text: GCTS 170400Z 07010KT 9999 SCT020 22/20 Q1016 NOSIG
Conditions at: GCTS (TENERIFE SUR/REI, ES) observed 0400 UTC 17 September 2019
Temperature: 22.0°C (72°F)
Dewpoint: 20.0°C (68°F) [RH = 88%]
Pressure (altimeter): 30.00 inches Hg (1016.0 mb)
Winds: from the ENE (70 degrees) at 12 MPH (10 knots; 5.1 m/s)
Visibility: 6 or more miles (10+ km)
Ceiling: at least 12,000 feet AGL
Clouds: scattered clouds at 2000 feet AGL
Weather: no significant weather observed at this time

METAR text: GCTS 170330Z 07010KT 9999 BKN020 22/20 Q1015 NOSIG
Conditions at: GCTS (TENERIFE SUR/REI, ES) observed 0330 UTC 17 September 2019
Temperature: 22.0°C (72°F)
Dewpoint: 20.0°C (68°F) [RH = 88%]
Pressure (altimeter): 29.97 inches Hg (1015.0 mb)
Winds: from the ENE (70 degrees) at 12 MPH (10 knots; 5.1 m/s)
Visibility: 6 or more miles (10+ km)
Ceiling: 2000 feet AGL
Clouds: broken clouds at 2000 feet AGL
Weather: no significant weather observed at this time

METAR text: GCTS 170300Z 07010KT 9999 BKN020 22/20 Q1016 NOSIG
Conditions at: GCTS (TENERIFE SUR/REI, ES) observed 0300 UTC 17 September 2019
Temperature: 22.0°C (72°F)
Dewpoint: 20.0°C (68°F) [RH = 88%]
Pressure (altimeter): 30.00 inches Hg (1016.0 mb)
Winds: from the ENE (70 degrees) at 12 MPH (10 knots; 5.1 m/s)
Visibility: 6 or more miles (10+ km)
Ceiling: 2000 feet AGL
Clouds: broken clouds at 2000 feet AGL
Weather: no significant weather observed at this time

METAR text: GCTS 170230Z 07010KT 9999 BKN014 22/20 Q1016 NOSIG
Conditions at: GCTS (TENERIFE SUR/REI, ES) observed 0230 UTC 17 September 2019
Temperature: 22.0°C (72°F)
Dewpoint: 20.0°C (68°F) [RH = 88%]
Pressure (altimeter): 30.00 inches Hg (1016.0 mb)
Winds: from the ENE (70 degrees) at 12 MPH (10 knots; 5.1 m/s)
Visibility: 6 or more miles (10+ km)
Ceiling: 1400 feet AGL
Clouds: broken clouds at 1400 feet AGL
Weather: no significant weather observed at this time

METAR text: GCTS 170200Z 08010KT 9999 BKN016 23/21 Q1016 NOSIG
Conditions at: GCTS (TENERIFE SUR/REI, ES) observed 0200 UTC 17 September 2019
Temperature: 23.0°C (73°F)
Dewpoint: 21.0°C (70°F) [RH = 89%]
Pressure (altimeter): 30.00 inches Hg (1016.0 mb)
Winds: from the E (80 degrees) at 12 MPH (10 knots; 5.1 m/s)
Visibility: 6 or more miles (10+ km)
Ceiling: 1600 feet AGL
Clouds: broken clouds at 1600 feet AGL
Weather: no significant weather observed at this time

METAR text: GCTS 170130Z 08005KT 9999 BKN020 23/21 Q1017 NOSIG
Conditions at: GCTS (TENERIFE SUR/REI, ES) observed 0130 UTC 17 September 2019
Temperature: 23.0°C (73°F)
Dewpoint: 21.0°C (70°F) [RH = 89%]
Pressure (altimeter): 30.03 inches Hg (1017.0 mb)
Winds: from the E (80 degrees) at 6 MPH (5 knots; 2.6 m/s)
Visibility: 6 or more miles (10+ km)
Ceiling: 2000 feet AGL
Clouds: broken clouds at 2000 feet AGL
Weather: no significant weather observed at this time

METAR text: GCTS 170100Z 09007KT 9999 BKN017 23/21 Q1017 NOSIG
Conditions at: GCTS (TENERIFE SUR/REI, ES) observed 0100 UTC 17 September 2019
Temperature: 23.0°C (73°F)
Dewpoint: 21.0°C (70°F) [RH = 89%]
Pressure (altimeter): 30.03 inches Hg (1017.0 mb)
Winds: from the E (90 degrees) at 8 MPH (7 knots; 3.6 m/s)
Visibility: 6 or more miles (10+ km)
Ceiling: 1700 feet AGL
Clouds: broken clouds at 1700 feet AGL
Weather: no significant weather observed at this time

METAR text: GCTS 170030Z 08005KT 9999 BKN013 BKN018 23/21 Q1017 NOSIG
Conditions at: GCTS (TENERIFE SUR/REI, ES) observed 0030 UTC 17 September 2019
Temperature: 23.0°C (73°F)
Dewpoint: 21.0°C (70°F) [RH = 89%]
Pressure (altimeter): 30.03 inches Hg (1017.0 mb)
Winds: from the E (80 degrees) at 6 MPH (5 knots; 2.6 m/s)
Visibility: 6 or more miles (10+ km)
Ceiling: 1300 feet AGL
Clouds: broken clouds at 1300 feet AGL
broken clouds at 1800 feet AGL
Weather: no significant weather observed at this time

METAR text: GCTS 170000Z 08006KT 9999 BKN013 22/21 Q1017 NOSIG
Conditions at: GCTS (TENERIFE SUR/REI, ES) observed 0000 UTC 17 September 2019
Temperature: 22.0°C (72°F)
Dewpoint: 21.0°C (70°F) [RH = 94%]
Pressure (altimeter): 30.03 inches Hg (1017.0 mb)
Winds: from the E (80 degrees) at 7 MPH (6 knots; 3.1 m/s)
Visibility: 6 or more miles (10+ km)
Ceiling: 1300 feet AGL
Clouds: broken clouds at 1300 feet AGL
Weather: no significant weather observed at this time

METAR text: GCTS 162330Z 09006KT 9999 BKN015 23/21 Q1017 NOSIG
Conditions at: GCTS (TENERIFE SUR/REI, ES) observed 2330 UTC 16 September 2019
Temperature: 23.0°C (73°F)
Dewpoint: 21.0°C (70°F) [RH = 89%]
Pressure (altimeter): 30.03 inches Hg (1017.0 mb)
Winds: from the E (90 degrees) at 7 MPH (6 knots; 3.1 m/s)
Visibility: 6 or more miles (10+ km)
Ceiling: 1500 feet AGL
Clouds: broken clouds at 1500 feet AGL
Weather: no significant weather observed at this time

METAR text: GCTS 162300Z 08005KT 050V110 9999 BKN015 23/21 Q1017 NOSIG
Conditions at: GCTS (TENERIFE SUR/REI, ES) observed 2300 UTC 16 September 2019
Temperature: 23.0°C (73°F)
Dewpoint: 21.0°C (70°F) [RH = 89%]
Pressure (altimeter): 30.03 inches Hg (1017.0 mb)
Winds: from the E (80 degrees) at 6 MPH (5 knots; 2.6 m/s)
Visibility: 6 or more miles (10+ km)
Ceiling: 1500 feet AGL
Clouds: broken clouds at 1500 feet AGL
Weather: no significant weather observed at this time

METAR text: GCTS 162230Z 10005KT 9999 BKN015 BKN050 23/21 Q1017 NOSIG
Conditions at: GCTS (TENERIFE SUR/REI, ES) observed 2230 UTC 16 September 2019
Temperature: 23.0°C (73°F)
Dewpoint: 21.0°C (70°F) [RH = 89%]
Pressure (altimeter): 30.03 inches Hg (1017.0 mb)
Winds: from the E (100 degrees) at 6 MPH (5 knots; 2.6 m/s)
Visibility: 6 or more miles (10+ km)
Ceiling: 1500 feet AGL
Clouds: broken clouds at 1500 feet AGL
broken clouds at 5000 feet AGL
Weather: no significant weather observed at this time

METAR text: GCTS 162200Z 06011KT 9999 SCT016 23/21 Q1017 NOSIG
Conditions at: GCTS (TENERIFE SUR/REI, ES) observed 2200 UTC 16 September 2019
Temperature: 23.0°C (73°F)
Dewpoint: 21.0°C (70°F) [RH = 89%]
Pressure (altimeter): 30.03 inches Hg (1017.0 mb)
Winds: from the ENE (60 degrees) at 13 MPH (11 knots; 5.7 m/s)
Visibility: 6 or more miles (10+ km)
Ceiling: at least 12,000 feet AGL
Clouds: scattered clouds at 1600 feet AGL
Weather: no significant weather observed at this time

METAR text: GCTS 162130Z 06009KT 9999 BKN021 23/21 Q1018 NOSIG
Conditions at: GCTS (TENERIFE SUR/REI, ES) observed 2130 UTC 16 September 2019
Temperature: 23.0°C (73°F)
Dewpoint: 21.0°C (70°F) [RH = 89%]
Pressure (altimeter): 30.06 inches Hg (1018.0 mb)
Winds: from the ENE (60 degrees) at 10 MPH (9 knots; 4.6 m/s)
Visibility: 6 or more miles (10+ km)
Ceiling: 2100 feet AGL
Clouds: broken clouds at 2100 feet AGL
Weather: no significant weather observed at this time

METAR text: GCTS 162100Z 08007KT 9999 BKN015 23/21 Q1017 TEMPO SCT120CB
Conditions at: GCTS (TENERIFE SUR/REI, ES) observed 2100 UTC 16 September 2019
Temperature: 23.0°C (73°F)
Dewpoint: 21.0°C (70°F) [RH = 89%]
Pressure (altimeter): 30.03 inches Hg (1017.0 mb)
Winds: from the E (80 degrees) at 8 MPH (7 knots; 3.6 m/s)
Visibility: 6 or more miles (10+ km)
Ceiling: 1500 feet AGL
Clouds: broken clouds at 1500 feet AGL
Weather: no significant weather observed at this time

METAR text: GCTS 162030Z 07005KT 9999 FEW018 23/21 Q1017 TEMPO SCT120CB
Conditions at: GCTS (TENERIFE SUR/REI, ES) observed 2030 UTC 16 September 2019
Temperature: 23.0°C (73°F)
Dewpoint: 21.0°C (70°F) [RH = 89%]
Pressure (altimeter): 30.03 inches Hg (1017.0 mb)
Winds: from the ENE (70 degrees) at 6 MPH (5 knots; 2.6 m/s)
Visibility: 6 or more miles (10+ km)
Ceiling: at least 12,000 feet AGL
Clouds: few clouds at 1800 feet AGL
Weather: no significant weather observed at this time

METAR text: GCTS 162000Z 07010KT 9999 FEW018 SCT070 23/21 Q1016 TEMPO RA
Conditions at: GCTS (TENERIFE SUR/REI, ES) observed 2000 UTC 16 September 2019
Temperature: 23.0°C (73°F)
Dewpoint: 21.0°C (70°F) [RH = 89%]
Pressure (altimeter): 30.00 inches Hg (1016.0 mb)
Winds: from the ENE (70 degrees) at 12 MPH (10 knots; 5.1 m/s)
Visibility: 6 or more miles (10+ km)
Ceiling: at least 12,000 feet AGL
Clouds: few clouds at 1800 feet AGL
scattered clouds at 7000 feet AGL
Weather: no significant weather observed at this time

METAR text: GCTS 161930Z 09005KT 9999 BKN015 23/21 Q1017 TEMPO RA
Conditions at: GCTS (TENERIFE SUR/REI, ES) observed 1930 UTC 16 September 2019
Temperature: 23.0°C (73°F)
Dewpoint: 21.0°C (70°F) [RH = 89%]
Pressure (altimeter): 30.03 inches Hg (1017.0 mb)
Winds: from the E (90 degrees) at 6 MPH (5 knots; 2.6 m/s)
Visibility: 6 or more miles (10+ km)
Ceiling: 1500 feet AGL
Clouds: broken clouds at 1500 feet AGL
Weather: no significant weather observed at this time

METAR text: GCTS 161900Z 09004KT 050V190 9999 SCT014 SCT045 BKN085 23/21 Q1017 TEMPO RA
Conditions at: GCTS (TENERIFE SUR/REI, ES) observed 1900 UTC 16 September 2019
Temperature: 23.0°C (73°F)
Dewpoint: 21.0°C (70°F) [RH = 89%]
Pressure (altimeter): 30.03 inches Hg (1017.0 mb)
Winds: from the E (90 degrees) at 5 MPH (4 knots; 2.1 m/s)
Visibility: 6 or more miles (10+ km)
Ceiling: 8500 feet AGL
Clouds: scattered clouds at 1400 feet AGL
scattered clouds at 4500 feet AGL
broken clouds at 8500 feet AGL
Weather: no significant weather observed at this time

METAR text: GCTS 161830Z VRB01KT 9999 -SHRA BKN014TCU 23/21 Q1017 TEMPO RA
Conditions at: GCTS (TENERIFE SUR/REI, ES) observed 1830 UTC 16 September 2019
Temperature: 23.0°C (73°F)
Dewpoint: 21.0°C (70°F) [RH = 89%]
Pressure (altimeter): 30.03 inches Hg (1017.0 mb)
Winds: variable direction winds at 1 MPH (1 knots; 0.5 m/s)
Visibility: 6 or more miles (10+ km)
Ceiling: 1400 feet AGL
Clouds: broken clouds at 1400 feet AGL
Weather: -SHRA  (light rain showers)

METAR text: GCTS 161811Z VRB01KT 9999 SHRA BKN014TCU BKN120 23/21 Q1017 TEMPO RA
Conditions at: GCTS (TENERIFE SUR/REI, ES) observed 1811 UTC 16 September 2019
Temperature: 23.0°C (73°F)
Dewpoint: 21.0°C (70°F) [RH = 89%]
Pressure (altimeter): 30.03 inches Hg (1017.0 mb)
Winds: variable direction winds at 1 MPH (1 knots; 0.5 m/s)
Visibility: 6 or more miles (10+ km)
Ceiling: 1400 feet AGL
Clouds: broken clouds at 1400 feet AGL
broken clouds at 12000 feet AGL
Weather: SHRA  (rain showers)

METAR text: GCTS 161800Z VRB02KT 9999 -SHRA BKN014TCU BKN120 23/21 Q1017 TEMPO TS SHRA SCT120CB
Conditions at: GCTS (TENERIFE SUR/REI, ES) observed 1800 UTC 16 September 2019
Temperature: 23.0°C (73°F)
Dewpoint: 21.0°C (70°F) [RH = 89%]
Pressure (altimeter): 30.03 inches Hg (1017.0 mb)
Winds: variable direction winds at 2 MPH (2 knots; 1.0 m/s)
Visibility: 6 or more miles (10+ km)
Ceiling: 1400 feet AGL
Clouds: broken clouds at 1400 feet AGL
broken clouds at 12000 feet AGL
Weather: -SHRA  (light rain showers)

METAR text: GCTS 161730Z 11006KT 070V170 9999 -RA BKN012 BKN120CB 23/21 Q1016 TEMPO TS SHRA
Conditions at: GCTS (TENERIFE SUR/REI, ES) observed 1730 UTC 16 September 2019
Temperature: 23.0°C (73°F)
Dewpoint: 21.0°C (70°F) [RH = 89%]
Pressure (altimeter): 30.00 inches Hg (1016.0 mb)
Winds: from the ESE (110 degrees) at 7 MPH (6 knots; 3.1 m/s)
Visibility: 6 or more miles (10+ km)
Ceiling: 1200 feet AGL
Clouds: broken clouds at 1200 feet AGL
broken clouds at 12000 feet AGL
Weather: -RA  (light rain)

METAR text: GCTS 161700Z 10006KT 9999 -SHRA BKN012TCU BKN120CB 23/21 Q1016 WS R07 TEMPO TS SHRA
Conditions at: GCTS (TENERIFE SUR/REI, ES) observed 1700 UTC 16 September 2019
Temperature: 23.0°C (73°F)
Dewpoint: 21.0°C (70°F) [RH = 89%]
Pressure (altimeter): 30.00 inches Hg (1016.0 mb)
Winds: from the E (100 degrees) at 7 MPH (6 knots; 3.1 m/s)
Visibility: 6 or more miles (10+ km)
Ceiling: 1200 feet AGL
Clouds: broken clouds at 1200 feet AGL
broken clouds at 12000 feet AGL
Weather: -SHRA  (light rain showers)

METAR text: GCTS 161630Z VRB02KT 9999 VCTS -SHRA BKN015TCU BKN120CB 23/21 Q1017 WS R07 TEMPO TS SHRA
Conditions at: GCTS (TENERIFE SUR/REI, ES) observed 1630 UTC 16 September 2019
Temperature: 23.0°C (73°F)
Dewpoint: 21.0°C (70°F) [RH = 89%]
Pressure (altimeter): 30.03 inches Hg (1017.0 mb)
Winds: variable direction winds at 2 MPH (2 knots; 1.0 m/s)
Visibility: 6 or more miles (10+ km)
Ceiling: 1500 feet AGL
Clouds: broken clouds at 1500 feet AGL
broken clouds at 12000 feet AGL
Weather: VCTS -SHRA  (thunderstorm in vicinity, light rain showers)

METAR text: GCTS 161602Z 11005KT 9999 SHRA SCT015TCU SCT025 BKN120 23/21 Q1017 WS R07 NOSIG
Conditions at: GCTS (TENERIFE SUR/REI, ES) observed 1602 UTC 16 September 2019
Temperature: 23.0°C (73°F)
Dewpoint: 21.0°C (70°F) [RH = 89%]
Pressure (altimeter): 30.03 inches Hg (1017.0 mb)
Winds: from the ESE (110 degrees) at 6 MPH (5 knots; 2.6 m/s)
Visibility: 6 or more miles (10+ km)
Ceiling: 12000 feet AGL
Clouds: scattered clouds at 1500 feet AGL
scattered clouds at 2500 feet AGL
broken clouds at 12000 feet AGL
Weather: SHRA  (rain showers)

METAR text: GCTS 161600Z 11005KT 080V150 9999 -SHRA SCT015TCU SCT025 BKN120 23/21 Q1017 WS R07 TEMPO SHRA
Conditions at: GCTS (TENERIFE SUR/REI, ES) observed 1600 UTC 16 September 2019
Temperature: 23.0°C (73°F)
Dewpoint: 21.0°C (70°F) [RH = 89%]
Pressure (altimeter): 30.03 inches Hg (1017.0 mb)
Winds: from the ESE (110 degrees) at 6 MPH (5 knots; 2.6 m/s)
Visibility: 6 or more miles (10+ km)
Ceiling: 12000 feet AGL
Clouds: scattered clouds at 1500 feet AGL
scattered clouds at 2500 feet AGL
broken clouds at 12000 feet AGL
Weather: -SHRA  (light rain showers)

METAR text: GCTS 161530Z 08007KT 9999 FEW015TCU SCT030 BKN120 24/22 Q1016 TEMPO SHRA
Conditions at: GCTS (TENERIFE SUR/REI, ES) observed 1530 UTC 16 September 2019
Temperature: 24.0°C (75°F)
Dewpoint: 22.0°C (72°F) [RH = 89%]
Pressure (altimeter): 30.00 inches Hg (1016.0 mb)
Winds: from the E (80 degrees) at 8 MPH (7 knots; 3.6 m/s)
Visibility: 6 or more miles (10+ km)
Ceiling: 12000 feet AGL
Clouds: few clouds at 1500 feet AGL
scattered clouds at 3000 feet AGL
broken clouds at 12000 feet AGL
Weather: no significant weather observed at this time

METAR text: GCTS 161500Z 22006KT 180V240 9999 VCTS FEW015 SCT030 BKN120CB 24/21 Q1017 TEMPO SHRA
Conditions at: GCTS (TENERIFE SUR/REI, ES) observed 1500 UTC 16 September 2019
Temperature: 24.0°C (75°F)
Dewpoint: 21.0°C (70°F) [RH = 83%]
Pressure (altimeter): 30.03 inches Hg (1017.0 mb)
Winds: from the SW (220 degrees) at 7 MPH (6 knots; 3.1 m/s)
Visibility: 6 or more miles (10+ km)
Ceiling: 12000 feet AGL
Clouds: few clouds at 1500 feet AGL
scattered clouds at 3000 feet AGL
broken clouds at 12000 feet AGL
Weather: VCTS  (thunderstorm in vicinity)

METAR text: GCTS 161430Z 26010KT 220V290 9999 -RA SCT025TCU BKN050 24/21 Q1017 TEMPO RA
Conditions at: GCTS (TENERIFE SUR/REI, ES) observed 1430 UTC 16 September 2019
Temperature: 24.0°C (75°F)
Dewpoint: 21.0°C (70°F) [RH = 83%]
Pressure (altimeter): 30.03 inches Hg (1017.0 mb)
Winds: from the W (260 degrees) at 12 MPH (10 knots; 5.1 m/s)
Visibility: 6 or more miles (10+ km)
Ceiling: 5000 feet AGL
Clouds: scattered clouds at 2500 feet AGL
broken clouds at 5000 feet AGL
Weather: -RA  (light rain)

METAR text: GCTS 161400Z 18005KT 120V230 9999 -RA SCT023TCU BKN050 24/21 Q1017 TEMPO RA
Conditions at: GCTS (TENERIFE SUR/REI, ES) observed 1400 UTC 16 September 2019
Temperature: 24.0°C (75°F)
Dewpoint: 21.0°C (70°F) [RH = 83%]
Pressure (altimeter): 30.03 inches Hg (1017.0 mb)
Winds: from the S (180 degrees) at 6 MPH (5 knots; 2.6 m/s)
Visibility: 6 or more miles (10+ km)
Ceiling: 5000 feet AGL
Clouds: scattered clouds at 2300 feet AGL
broken clouds at 5000 feet AGL
Weather: -RA  (light rain)

METAR text: GCTS 161330Z 19005KT 150V240 9999 -SHRA SCT023TCU BKN050 24/21 Q1018 TEMPO RA
Conditions at: GCTS (TENERIFE SUR/REI, ES) observed 1330 UTC 16 September 2019
Temperature: 24.0°C (75°F)
Dewpoint: 21.0°C (70°F) [RH = 83%]
Pressure (altimeter): 30.06 inches Hg (1018.0 mb)
Winds: from the S (190 degrees) at 6 MPH (5 knots; 2.6 m/s)
Visibility: 6 or more miles (10+ km)
Ceiling: 5000 feet AGL
Clouds: scattered clouds at 2300 feet AGL
broken clouds at 5000 feet AGL
Weather: -SHRA  (light rain showers)

METAR text: GCTS 161300Z VRB04KT 9999 FEW030 BKN110 25/20 Q1017 NOSIG
Conditions at: GCTS (TENERIFE SUR/REI, ES) observed 1300 UTC 16 September 2019
Temperature: 25.0°C (77°F)
Dewpoint: 20.0°C (68°F) [RH = 74%]
Pressure (altimeter): 30.03 inches Hg (1017.0 mb)
Winds: variable direction winds at 5 MPH (4 knots; 2.1 m/s)
Visibility: 6 or more miles (10+ km)
Ceiling: 11000 feet AGL
Clouds: few clouds at 3000 feet AGL
broken clouds at 11000 feet AGL
Weather: no significant weather observed at this time

METAR text: GCTS 161230Z 22005KT 170V290 9999 FEW030 SCT110 26/19 Q1017 NOSIG
Conditions at: GCTS (TENERIFE SUR/REI, ES) observed 1230 UTC 16 September 2019
Temperature: 26.0°C (79°F)
Dewpoint: 19.0°C (66°F) [RH = 65%]
Pressure (altimeter): 30.03 inches Hg (1017.0 mb)
Winds: from the SW (220 degrees) at 6 MPH (5 knots; 2.6 m/s)
Visibility: 6 or more miles (10+ km)
Ceiling: at least 12,000 feet AGL
Clouds: few clouds at 3000 feet AGL
scattered clouds at 11000 feet AGL
Weather: no significant weather observed at this time

METAR text: GCTS 161200Z VRB03KT 9999 FEW070 BKN110 26/19 Q1018 NOSIG
Conditions at: GCTS (TENERIFE SUR/REI, ES) observed 1200 UTC 16 September 2019
Temperature: 26.0°C (79°F)
Dewpoint: 19.0°C (66°F) [RH = 65%]
Pressure (altimeter): 30.06 inches Hg (1018.0 mb)
Winds: variable direction winds at 3 MPH (3 knots; 1.5 m/s)
Visibility: 6 or more miles (10+ km)
Ceiling: 11000 feet AGL
Clouds: few clouds at 7000 feet AGL
broken clouds at 11000 feet AGL
Weather: no significant weather observed at this time

METAR text: GCTS 161130Z 26004KT 220V290 9999 VCTS FEW060CB BKN120 25/19 Q1018 NOSIG
Conditions at: GCTS (TENERIFE SUR/REI, ES) observed 1130 UTC 16 September 2019
Temperature: 25.0°C (77°F)
Dewpoint: 19.0°C (66°F) [RH = 69%]
Pressure (altimeter): 30.06 inches Hg (1018.0 mb)
Winds: from the W (260 degrees) at 5 MPH (4 knots; 2.1 m/s)
Visibility: 6 or more miles (10+ km)
Ceiling: 12000 feet AGL
Clouds: few clouds at 6000 feet AGL
broken clouds at 12000 feet AGL
Weather: VCTS  (thunderstorm in vicinity)

METAR text: GCTS 161100Z 26004KT 220V310 9999 FEW060 BKN140 25/18 Q1017 NOSIG
Conditions at: GCTS (TENERIFE SUR/REI, ES) observed 1100 UTC 16 September 2019
Temperature: 25.0°C (77°F)
Dewpoint: 18.0°C (64°F) [RH = 65%]
Pressure (altimeter): 30.03 inches Hg (1017.0 mb)
Winds: from the W (260 degrees) at 5 MPH (4 knots; 2.1 m/s)
Visibility: 6 or more miles (10+ km)
Ceiling: 14000 feet AGL
Clouds: few clouds at 6000 feet AGL
broken clouds at 14000 feet AGL
Weather: no significant weather observed at this time

METAR text: GCTS 161030Z 20004KT 140V250 9999 FEW060 BKN130 25/17 Q1018 NOSIG
Conditions at: GCTS (TENERIFE SUR/REI, ES) observed 1030 UTC 16 September 2019
Temperature: 25.0°C (77°F)
Dewpoint: 17.0°C (63°F) [RH = 61%]
Pressure (altimeter): 30.06 inches Hg (1018.0 mb)
Winds: from the SSW (200 degrees) at 5 MPH (4 knots; 2.1 m/s)
Visibility: 6 or more miles (10+ km)
Ceiling: 13000 feet AGL
Clouds: few clouds at 6000 feet AGL
broken clouds at 13000 feet AGL
Weather: no significant weather observed at this time

METAR text: GCTS 161000Z 21012KT 9999 FEW060 BKN120 25/16 Q1018 TEMPO TSRA SCT140CB
Conditions at: GCTS (TENERIFE SUR/REI, ES) observed 1000 UTC 16 September 2019
Temperature: 25.0°C (77°F)
Dewpoint: 16.0°C (61°F) [RH = 57%]
Pressure (altimeter): 30.06 inches Hg (1018.0 mb)
Winds: from the SSW (210 degrees) at 14 MPH (12 knots; 6.2 m/s)
Visibility: 6 or more miles (10+ km)
Ceiling: 12000 feet AGL
Clouds: few clouds at 6000 feet AGL
broken clouds at 12000 feet AGL
Weather: no significant weather observed at this time

METAR text: GCTS 160930Z 07009KT 030V100 9999 VCSH FEW070CB BKN120 25/16 Q1016 TEMPO TSRA SCT140CB
Conditions at: GCTS (TENERIFE SUR/REI, ES) observed 0930 UTC 16 September 2019
Temperature: 25.0°C (77°F)
Dewpoint: 16.0°C (61°F) [RH = 57%]
Pressure (altimeter): 30.00 inches Hg (1016.0 mb)
Winds: from the ENE (70 degrees) at 10 MPH (9 knots; 4.6 m/s)
Visibility: 6 or more miles (10+ km)
Ceiling: 12000 feet AGL
Clouds: few clouds at 7000 feet AGL
broken clouds at 12000 feet AGL
Weather: VCSH  (showers in vicinity)

METAR text: GCTS 160900Z 32005KT 9999 VCTS VCSH FEW070CB BKN120 24/18 Q1017 WS R07 TEMPO TSRA SCT140CB
Conditions at: GCTS (TENERIFE SUR/REI, ES) observed 0900 UTC 16 September 2019
Temperature: 24.0°C (75°F)
Dewpoint: 18.0°C (64°F) [RH = 69%]
Pressure (altimeter): 30.03 inches Hg (1017.0 mb)
Winds: from the NW (320 degrees) at 6 MPH (5 knots; 2.6 m/s)
Visibility: 6 or more miles (10+ km)
Ceiling: 12000 feet AGL
Clouds: few clouds at 7000 feet AGL
broken clouds at 12000 feet AGL
Weather: VCTS VCSH  (thunderstorm in vicinity, showers in vicinity)

METAR text: GCTS 160844Z 02007KT 350V060 9999 VCTS VCSH FEW070CB BKN120 24/19 Q1016 WS R07 TEMPO TSRA SCT140CB
Conditions at: GCTS (TENERIFE SUR/REI, ES) observed 0844 UTC 16 September 2019
Temperature: 24.0°C (75°F)
Dewpoint: 19.0°C (66°F) [RH = 74%]
Pressure (altimeter): 30.00 inches Hg (1016.0 mb)
Winds: from the NNE (20 degrees) at 8 MPH (7 knots; 3.6 m/s)
Visibility: 6 or more miles (10+ km)
Ceiling: 12000 feet AGL
Clouds: few clouds at 7000 feet AGL
broken clouds at 12000 feet AGL
Weather: VCTS VCSH  (thunderstorm in vicinity, showers in vicinity)

METAR text: GCTS 160830Z 07018KT 9999 VCSH FEW070CB BKN120 23/16 Q1015 WS R07 TEMPO TSRA SCT140CB
Conditions at: GCTS (TENERIFE SUR/REI, ES) observed 0830 UTC 16 September 2019
Temperature: 23.0°C (73°F)
Dewpoint: 16.0°C (61°F) [RH = 65%]
Pressure (altimeter): 29.97 inches Hg (1015.0 mb)
Winds: from the ENE (70 degrees) at 21 MPH (18 knots; 9.3 m/s)
Visibility: 6 or more miles (10+ km)
Ceiling: 12000 feet AGL
Clouds: few clouds at 7000 feet AGL
broken clouds at 12000 feet AGL
Weather: VCSH  (showers in vicinity)

METAR text: GCTS 160800Z 08019KT 9999 SCT070CB BKN120 22/18 Q1015 WS R07 TEMPO TSRA SCT140CB
Conditions at: GCTS (TENERIFE SUR/REI, ES) observed 0800 UTC 16 September 2019
Temperature: 22.0°C (72°F)
Dewpoint: 18.0°C (64°F) [RH = 78%]
Pressure (altimeter): 29.97 inches Hg (1015.0 mb)
Winds: from the E (80 degrees) at 22 MPH (19 knots; 9.8 m/s)
Visibility: 6 or more miles (10+ km)
Ceiling: 12000 feet AGL
Clouds: scattered clouds at 7000 feet AGL
broken clouds at 12000 feet AGL
Weather: no significant weather observed at this time

METAR text: GCTS 160730Z 08023KT 9999 -RA SCT080CB BKN120 22/18 Q1015 WS R07 TEMPO TSRA SCT140CB
Conditions at: GCTS (TENERIFE SUR/REI, ES) observed 0730 UTC 16 September 2019
Temperature: 22.0°C (72°F)
Dewpoint: 18.0°C (64°F) [RH = 78%]
Pressure (altimeter): 29.97 inches Hg (1015.0 mb)
Winds: from the E (80 degrees) at 26 MPH (23 knots; 11.8 m/s)
Visibility: 6 or more miles (10+ km)
Ceiling: 12000 feet AGL
Clouds: scattered clouds at 8000 feet AGL
broken clouds at 12000 feet AGL
Weather: -RA  (light rain)

METAR text: GCTS 160716Z 07019KT 9999 -RA SCT080CB BKN120 22/18 Q1016 WS R07 TEMPO TSRA SCT140CB
Conditions at: GCTS (TENERIFE SUR/REI, ES) observed 0716 UTC 16 September 2019
Temperature: 22.0°C (72°F)
Dewpoint: 18.0°C (64°F) [RH = 78%]
Pressure (altimeter): 30.00 inches Hg (1016.0 mb)
Winds: from the ENE (70 degrees) at 22 MPH (19 knots; 9.8 m/s)
Visibility: 6 or more miles (10+ km)
Ceiling: 12000 feet AGL
Clouds: scattered clouds at 8000 feet AGL
broken clouds at 12000 feet AGL
Weather: -RA  (light rain)

METAR text: GCTS 160700Z 07020KT 9999 RA FEW090 23/18 Q1016 WS R07 TEMPO TSRA SCT140CB
Conditions at: GCTS (TENERIFE SUR/REI, ES) observed 0700 UTC 16 September 2019
Temperature: 23.0°C (73°F)
Dewpoint: 18.0°C (64°F) [RH = 73%]
Pressure (altimeter): 30.00 inches Hg (1016.0 mb)
Winds: from the ENE (70 degrees) at 23 MPH (20 knots; 10.3 m/s)
Visibility: 6 or more miles (10+ km)
Ceiling: at least 12,000 feet AGL
Clouds: few clouds at 9000 feet AGL
Weather: RA  (moderate rain)

METAR text: GCTS 160630Z 05022KT CAVOK 23/17 Q1016 WS R07 TEMPO TSRA SCT140CB
Conditions at: GCTS (TENERIFE SUR/REI, ES) observed 0630 UTC 16 September 2019
Temperature: 23.0°C (73°F)
Dewpoint: 17.0°C (63°F) [RH = 69%]
Pressure (altimeter): 30.00 inches Hg (1016.0 mb)
Winds: from the NE (50 degrees) at 25 MPH (22 knots; 11.3 m/s)
Visibility: 6 or more miles (10+ km)
Ceiling: ceiling and visibility are OK
Clouds: unknown
Weather: no significant weather observed at this time

METAR text: GCTS 160600Z 07019KT CAVOK 24/16 Q1017 WS R07 TEMPO TSRA SCT140CB
Conditions at: GCTS (TENERIFE SUR/REI, ES) observed 0600 UTC 16 September 2019
Temperature: 24.0°C (75°F)
Dewpoint: 16.0°C (61°F) [RH = 61%]
Pressure (altimeter): 30.03 inches Hg (1017.0 mb)
Winds: from the ENE (70 degrees) at 22 MPH (19 knots; 9.8 m/s)
Visibility: 6 or more miles (10+ km)
Ceiling: ceiling and visibility are OK
Clouds: unknown
Weather: no significant weather observed at this time

METAR text: GCTS 160530Z 32020G32KT 9999 SCT120 30/14 Q1017 WS R07 TEMPO TSRA SCT140CB
Conditions at: GCTS (TENERIFE SUR/REI, ES) observed 0530 UTC 16 September 2019
Temperature: 30.0°C (86°F)
Dewpoint: 14.0°C (57°F) [RH = 38%]
Pressure (altimeter): 30.03 inches Hg (1017.0 mb)
Winds: from the NW (320 degrees) at 23 MPH (20 knots; 10.3 m/s)
gusting to 37 MPH (32 knots; 16.5 m/s)
Visibility: 6 or more miles (10+ km)
Ceiling: at least 12,000 feet AGL
Clouds: scattered clouds at 12000 feet AGL
Weather: no significant weather observed at this time

METAR text: GCTS 160500Z 32016G27KT 9999 RA SCT140 25/16 Q1017 TEMPO TSRA SCT140CB
Conditions at: GCTS (TENERIFE SUR/REI, ES) observed 0500 UTC 16 September 2019
Temperature: 25.0°C (77°F)
Dewpoint: 16.0°C (61°F) [RH = 57%]
Pressure (altimeter): 30.03 inches Hg (1017.0 mb)
Winds: from the NW (320 degrees) at 18 MPH (16 knots; 8.2 m/s)
gusting to 31 MPH (27 knots; 13.9 m/s)
Visibility: 6 or more miles (10+ km)
Ceiling: at least 12,000 feet AGL
Clouds: scattered clouds at 14000 feet AGL
Weather: RA  (moderate rain)

METAR text: GCTS 160430Z 28019KT CAVOK 24/19 Q1018 TEMPO TSRA SCT140CB
Conditions at: GCTS (TENERIFE SUR/REI, ES) observed 0430 UTC 16 September 2019
Temperature: 24.0°C (75°F)
Dewpoint: 19.0°C (66°F) [RH = 74%]
Pressure (altimeter): 30.06 inches Hg (1018.0 mb)
Winds: from the W (280 degrees) at 22 MPH (19 knots; 9.8 m/s)
Visibility: 6 or more miles (10+ km)
Ceiling: ceiling and visibility are OK
Clouds: unknown
Weather: no significant weather observed at this time

METAR text: GCTS 160400Z 09013KT CAVOK 23/15 Q1016 TEMPO TSRA SCT140CB
Conditions at: GCTS (TENERIFE SUR/REI, ES) observed 0400 UTC 16 September 2019
Temperature: 23.0°C (73°F)
Dewpoint: 15.0°C (59°F) [RH = 61%]
Pressure (altimeter): 30.00 inches Hg (1016.0 mb)
Winds: from the E (90 degrees) at 15 MPH (13 knots; 6.7 m/s)
Visibility: 6 or more miles (10+ km)
Ceiling: ceiling and visibility are OK
Clouds: unknown
Weather: no significant weather observed at this time

METAR text: GCTS 160330Z 08011KT CAVOK 23/17 Q1016 TEMPO TSRA SCT140CB
Conditions at: GCTS (TENERIFE SUR/REI, ES) observed 0330 UTC 16 September 2019
Temperature: 23.0°C (73°F)
Dewpoint: 17.0°C (63°F) [RH = 69%]
Pressure (altimeter): 30.00 inches Hg (1016.0 mb)
Winds: from the E (80 degrees) at 13 MPH (11 knots; 5.7 m/s)
Visibility: 6 or more miles (10+ km)
Ceiling: ceiling and visibility are OK
Clouds: unknown
Weather: no significant weather observed at this time

METAR text: GCTS 160300Z VRB02KT CAVOK 23/19 Q1017 TEMPO TSRA SCT140CB
Conditions at: GCTS (TENERIFE SUR/REI, ES) observed 0300 UTC 16 September 2019
Temperature: 23.0°C (73°F)
Dewpoint: 19.0°C (66°F) [RH = 78%]
Pressure (altimeter): 30.03 inches Hg (1017.0 mb)
Winds: variable direction winds at 2 MPH (2 knots; 1.0 m/s)
Visibility: 6 or more miles (10+ km)
Ceiling: ceiling and visibility are OK
Clouds: unknown
Weather: no significant weather observed at this time

METAR text: GCTS 160230Z VRB02KT 9999 SCT140 23/20 Q1018 NOSIG
Conditions at: GCTS (TENERIFE SUR/REI, ES) observed 0230 UTC 16 September 2019
Temperature: 23.0°C (73°F)
Dewpoint: 20.0°C (68°F) [RH = 83%]
Pressure (altimeter): 30.06 inches Hg (1018.0 mb)
Winds: variable direction winds at 2 MPH (2 knots; 1.0 m/s)
Visibility: 6 or more miles (10+ km)
Ceiling: at least 12,000 feet AGL
Clouds: scattered clouds at 14000 feet AGL
Weather: no significant weather observed at this time

METAR text: GCTS 160200Z VRB01KT CAVOK 23/20 Q1018 NOSIG
Conditions at: GCTS (TENERIFE SUR/REI, ES) observed 0200 UTC 16 September 2019
Temperature: 23.0°C (73°F)
Dewpoint: 20.0°C (68°F) [RH = 83%]
Pressure (altimeter): 30.06 inches Hg (1018.0 mb)
Winds: variable direction winds at 1 MPH (1 knots; 0.5 m/s)
Visibility: 6 or more miles (10+ km)
Ceiling: ceiling and visibility are OK
Clouds: unknown
Weather: no significant weather observed at this time

METAR text: GCTS 160130Z 00000KT CAVOK 23/19 Q1018 NOSIG
Conditions at: GCTS (TENERIFE SUR/REI, ES) observed 0130 UTC 16 September 2019
Temperature: 23.0°C (73°F)
Dewpoint: 19.0°C (66°F) [RH = 78%]
Pressure (altimeter): 30.06 inches Hg (1018.0 mb)
Winds: calm
Visibility: 6 or more miles (10+ km)
Ceiling: ceiling and visibility are OK
Clouds: unknown
Weather: no significant weather observed at this time

METAR text: GCTS 160100Z 23003KT 160V260 CAVOK 23/19 Q1018 NOSIG
Conditions at: GCTS (TENERIFE SUR/REI, ES) observed 0100 UTC 16 September 2019
Temperature: 23.0°C (73°F)
Dewpoint: 19.0°C (66°F) [RH = 78%]
Pressure (altimeter): 30.06 inches Hg (1018.0 mb)
Winds: from the SW (230 degrees) at 3 MPH (3 knots; 1.5 m/s)
Visibility: 6 or more miles (10+ km)
Ceiling: ceiling and visibility are OK
Clouds: unknown
Weather: no significant weather observed at this time

METAR text: GCTS 160030Z 25006KT CAVOK 24/19 Q1018 NOSIG
Conditions at: GCTS (TENERIFE SUR/REI, ES) observed 0030 UTC 16 September 2019
Temperature: 24.0°C (75°F)
Dewpoint: 19.0°C (66°F) [RH = 74%]
Pressure (altimeter): 30.06 inches Hg (1018.0 mb)
Winds: from the WSW (250 degrees) at 7 MPH (6 knots; 3.1 m/s)
Visibility: 6 or more miles (10+ km)
Ceiling: ceiling and visibility are OK
Clouds: unknown
Weather: no significant weather observed at this time

Forecast for: GCTS (TENERIFE SUR/REI, ES)
Text: TAF GCTS 170800Z 1709/1809 09018KT 9999 FEW020 TX27/1714Z TN21/1805Z
Forecast period: 0900 to 2200 UTC 17 September 2019
Forecast type: FROM: standard forecast or significant change
Winds: from the E (90 degrees) at 21 MPH (18 knots; 9.3 m/s)
Visibility: 6 or more miles 10+ km)
Ceiling: at least 12,000 feet AGL
Clouds: few clouds at 2000 feet AGL
Weather: no significant weather forecast for this period
Text: TEMPO 1709/1710 07008KT
Forecast period: 0900 to 1000 UTC 17 September 2019
Forecast type: TEMPORARY: The following changes expected for less than half the time period
Winds: from the ENE (70 degrees) at 9 MPH (8 knots; 4.1 m/s)
Visibility: missing
Ceiling: unknown
Clouds: missing
Weather: no significant weather forecast for this period
Text: BECMG 1722/1724 03012KT
Forecast period: 2200 UTC 17 September 2019 to 0900 UTC 18 September 2019
Forecast type: BECOMING: Conditions expected to become as follows by 0000 UTC 18 September 2019
Winds: from the NNE (30 degrees) at 14 MPH (12 knots; 6.2 m/s)
Visibility: 6 or more miles 10+ km)
Ceiling: at least 12,000 feet AGL
Clouds: few clouds at 2000 feet AGL
Weather: no significant weather forecast for this period